Hamilton, United Kingdom
Current Conditions -  °F | °C
As of 8:20 AM on Thursday 29 Jan 2015 (Local Time) from EGPF Reporting Station
Broken Clouds Broken Clouds  
Wind Chill: 24°   Ceiling: 4500
Heat Index: 32°   Visibility: 6mi
Dew Point: 30°   Wind: 9mph
Humidity: 93%   Direction: 250°WSW
Pressure: 28.82"   Gusts: NA
Location:  55.78°N, 4.05°W
Report Text: EGPF 290820Z AUTO 25008KT 9999 FEW007 SCT028 BKN045 M00/M01 Q0976 REFZRA
Loading
Personal Weather Stations






























Interactive Weather Map New forecast layout! Learn more

10-Day Weather Forecast

Advertisements
Track Severe Weather on mobile